sensor_id;sensor_type;location;lat;lon;timestamp;P1;durP1;ratioP1;P2;durP2;ratioP2
11907;SDS011;6014;47.690;9.130;2022-12-28T00:02:17;5.63;;;3.00;;
11907;SDS011;6014;47.690;9.130;2022-12-28T00:04:45;5.70;;;2.90;;
11907;SDS011;6014;47.690;9.130;2022-12-28T00:07:13;5.83;;;3.30;;
11907;SDS011;6014;47.690;9.130;2022-12-28T00:09:42;5.53;;;3.37;;
11907;SDS011;6014;47.690;9.130;2022-12-28T00:12:11;6.17;;;3.37;;
11907;SDS011;6014;47.690;9.130;2022-12-28T00:14:39;5.53;;;3.20;;
11907;SDS011;6014;47.690;9.130;2022-12-28T00:17:11;6.33;;;3.50;;
11907;SDS011;6014;47.690;9.130;2022-12-28T00:19:45;5.77;;;2.90;;
11907;SDS011;6014;47.690;9.130;2022-12-28T00:22:13;6.80;;;3.33;;
11907;SDS011;6014;47.690;9.130;2022-12-28T00:24:41;4.90;;;2.93;;
11907;SDS011;6014;47.690;9.130;2022-12-28T00:27:09;6.07;;;3.23;;
11907;SDS011;6014;47.690;9.130;2022-12-28T00:29:42;5.67;;;2.87;;
11907;SDS011;6014;47.690;9.130;2022-12-28T00:32:12;5.90;;;2.93;;
11907;SDS011;6014;47.690;9.130;2022-12-28T00:34:40;10.20;;;3.13;;
11907;SDS011;6014;47.690;9.130;2022-12-28T00:37:10;6.10;;;2.77;;
11907;SDS011;6014;47.690;9.130;2022-12-28T00:39:44;6.10;;;3.10;;
11907;SDS011;6014;47.690;9.130;2022-12-28T00:42:16;5.70;;;3.03;;
11907;SDS011;6014;47.690;9.130;2022-12-28T00:44:48;5.27;;;3.10;;
11907;SDS011;6014;47.690;9.130;2022-12-28T00:47:17;7.50;;;3.67;;
11907;SDS011;6014;47.690;9.130;2022-12-28T00:49:45;7.67;;;4.03;;
11907;SDS011;6014;47.690;9.130;2022-12-28T00:52:13;6.97;;;3.63;;
11907;SDS011;6014;47.690;9.130;2022-12-28T00:54:41;6.47;;;3.53;;
11907;SDS011;6014;47.690;9.130;2022-12-28T00:57:10;7.53;;;3.63;;
11907;SDS011;6014;47.690;9.130;2022-12-28T00:59:40;6.43;;;3.73;;
11907;SDS011;6014;47.690;9.130;2022-12-28T01:02:09;6.50;;;4.10;;
11907;SDS011;6014;47.690;9.130;2022-12-28T01:04:37;7.10;;;4.10;;
11907;SDS011;6014;47.690;9.130;2022-12-28T01:07:05;8.43;;;4.47;;
11907;SDS011;6014;47.690;9.130;2022-12-28T01:09:34;8.33;;;4.77;;
11907;SDS011;6014;47.690;9.130;2022-12-28T01:12:03;10.10;;;4.73;;
11907;SDS011;6014;47.690;9.130;2022-12-28T01:14:31;11.30;;;6.00;;
11907;SDS011;6014;47.690;9.130;2022-12-28T01:17:01;8.43;;;5.03;;
11907;SDS011;6014;47.690;9.130;2022-12-28T01:19:31;9.63;;;5.00;;
11907;SDS011;6014;47.690;9.130;2022-12-28T01:22:00;8.33;;;4.70;;
11907;SDS011;6014;47.690;9.130;2022-12-28T01:24:29;9.60;;;4.60;;
11907;SDS011;6014;47.690;9.130;2022-12-28T01:26:57;7.77;;;4.87;;
11907;SDS011;6014;47.690;9.130;2022-12-28T01:29:25;7.83;;;4.70;;
11907;SDS011;6014;47.690;9.130;2022-12-28T01:31:54;8.70;;;5.27;;
11907;SDS011;6014;47.690;9.130;2022-12-28T01:34:24;8.47;;;4.97;;
11907;SDS011;6014;47.690;9.130;2022-12-28T01:36:52;7.47;;;4.87;;
11907;SDS011;6014;47.690;9.130;2022-12-28T01:39:21;7.93;;;4.53;;
11907;SDS011;6014;47.690;9.130;2022-12-28T01:41:49;11.23;;;5.30;;
11907;SDS011;6014;47.690;9.130;2022-12-28T01:47:12;10.30;;;5.60;;
11907;SDS011;6014;47.690;9.130;2022-12-28T01:49:45;10.07;;;4.80;;
11907;SDS011;6014;47.690;9.130;2022-12-28T01:52:27;8.70;;;5.30;;
11907;SDS011;6014;47.690;9.130;2022-12-28T01:54:59;7.77;;;4.63;;
11907;SDS011;6014;47.690;9.130;2022-12-28T01:57:32;7.27;;;4.50;;
11907;SDS011;6014;47.690;9.130;2022-12-28T02:00:05;7.23;;;4.37;;
11907;SDS011;6014;47.690;9.130;2022-12-28T02:02:35;8.03;;;4.90;;
11907;SDS011;6014;47.690;9.130;2022-12-28T02:05:06;7.43;;;4.73;;
11907;SDS011;6014;47.690;9.130;2022-12-28T02:07:38;8.47;;;4.77;;
11907;SDS011;6014;47.690;9.130;2022-12-28T02:10:14;8.73;;;5.17;;
11907;SDS011;6014;47.690;9.130;2022-12-28T02:13:05;9.03;;;5.07;;
11907;SDS011;6014;47.690;9.130;2022-12-28T02:15:34;8.03;;;4.87;;
11907;SDS011;6014;47.690;9.130;2022-12-28T02:18:02;7.50;;;4.60;;
11907;SDS011;6014;47.690;9.130;2022-12-28T02:20:33;9.33;;;5.07;;
11907;SDS011;6014;47.690;9.130;2022-12-28T02:23:22;8.50;;;5.27;;
11907;SDS011;6014;47.690;9.130;2022-12-28T02:29:09;8.10;;;5.27;;
11907;SDS011;6014;47.690;9.130;2022-12-28T02:34:27;7.30;;;4.60;;
11907;SDS011;6014;47.690;9.130;2022-12-28T02:37:05;8.67;;;4.93;;
11907;SDS011;6014;47.690;9.130;2022-12-28T02:39:40;8.90;;;5.23;;
11907;SDS011;6014;47.690;9.130;2022-12-28T02:42:13;7.67;;;4.73;;
11907;SDS011;6014;47.690;9.130;2022-12-28T02:44:44;8.37;;;5.70;;
11907;SDS011;6014;47.690;9.130;2022-12-28T02:47:30;8.40;;;5.20;;
11907;SDS011;6014;47.690;9.130;2022-12-28T02:50:16;7.40;;;4.80;;
11907;SDS011;6014;47.690;9.130;2022-12-28T02:52:52;8.60;;;5.07;;
11907;SDS011;6014;47.690;9.130;2022-12-28T02:55:42;8.07;;;4.97;;
11907;SDS011;6014;47.690;9.130;2022-12-28T02:58:49;7.23;;;4.27;;
11907;SDS011;6014;47.690;9.130;2022-12-28T03:01:52;7.83;;;4.50;;
11907;SDS011;6014;47.690;9.130;2022-12-28T03:04:44;6.67;;;4.30;;
11907;SDS011;6014;47.690;9.130;2022-12-28T03:07:25;7.90;;;4.53;;
11907;SDS011;6014;47.690;9.130;2022-12-28T03:10:14;7.60;;;4.30;;
11907;SDS011;6014;47.690;9.130;2022-12-28T03:12:51;7.50;;;4.30;;
11907;SDS011;6014;47.690;9.130;2022-12-28T03:15:26;7.30;;;4.37;;
11907;SDS011;6014;47.690;9.130;2022-12-28T03:18:00;8.10;;;4.90;;
11907;SDS011;6014;47.690;9.130;2022-12-28T03:20:49;7.33;;;4.90;;
11907;SDS011;6014;47.690;9.130;2022-12-28T03:23:39;7.93;;;4.50;;
11907;SDS011;6014;47.690;9.130;2022-12-28T03:26:26;7.50;;;4.57;;
11907;SDS011;6014;47.690;9.130;2022-12-28T03:29:23;7.43;;;4.93;;
11907;SDS011;6014;47.690;9.130;2022-12-28T03:32:12;8.27;;;4.47;;
11907;SDS011;6014;47.690;9.130;2022-12-28T03:34:42;7.77;;;4.27;;
11907;SDS011;6014;47.690;9.130;2022-12-28T03:37:11;8.17;;;4.50;;
11907;SDS011;6014;47.690;9.130;2022-12-28T03:39:52;7.37;;;3.90;;
11907;SDS011;6014;47.690;9.130;2022-12-28T03:42:26;7.80;;;4.03;;
11907;SDS011;6014;47.690;9.130;2022-12-28T03:45:18;6.50;;;3.80;;
11907;SDS011;6014;47.690;9.130;2022-12-28T03:48:14;7.00;;;3.80;;
11907;SDS011;6014;47.690;9.130;2022-12-28T03:50:49;6.17;;;3.70;;
11907;SDS011;6014;47.690;9.130;2022-12-28T03:53:21;6.93;;;4.30;;
11907;SDS011;6014;47.690;9.130;2022-12-28T03:56:03;6.73;;;3.73;;
11907;SDS011;6014;47.690;9.130;2022-12-28T03:58:39;6.40;;;3.93;;
11907;SDS011;6014;47.690;9.130;2022-12-28T04:01:08;6.70;;;4.10;;
11907;SDS011;6014;47.690;9.130;2022-12-28T04:03:38;8.17;;;4.90;;
11907;SDS011;6014;47.690;9.130;2022-12-28T04:06:08;8.63;;;4.87;;
11907;SDS011;6014;47.690;9.130;2022-12-28T04:08:41;9.17;;;4.77;;
11907;SDS011;6014;47.690;9.130;2022-12-28T04:11:11;9.53;;;5.13;;
11907;SDS011;6014;47.690;9.130;2022-12-28T04:13:39;7.90;;;4.50;;
11907;SDS011;6014;47.690;9.130;2022-12-28T04:16:09;7.63;;;4.43;;
11907;SDS011;6014;47.690;9.130;2022-12-28T04:18:38;6.53;;;4.10;;
11907;SDS011;6014;47.690;9.130;2022-12-28T04:21:10;6.40;;;4.27;;
11907;SDS011;6014;47.690;9.130;2022-12-28T04:23:39;7.57;;;4.53;;
11907;SDS011;6014;47.690;9.130;2022-12-28T04:26:11;7.73;;;4.77;;
11907;SDS011;6014;47.690;9.130;2022-12-28T04:28:41;7.80;;;4.63;;
11907;SDS011;6014;47.690;9.130;2022-12-28T04:31:12;7.97;;;4.43;;
11907;SDS011;6014;47.690;9.130;2022-12-28T04:33:40;8.17;;;4.57;;
11907;SDS011;6014;47.690;9.130;2022-12-28T04:36:11;9.93;;;5.20;;
11907;SDS011;6014;47.690;9.130;2022-12-28T04:38:40;7.93;;;4.20;;
11907;SDS011;6014;47.690;9.130;2022-12-28T04:41:09;8.53;;;5.40;;
11907;SDS011;6014;47.690;9.130;2022-12-28T04:43:38;9.00;;;5.10;;
11907;SDS011;6014;47.690;9.130;2022-12-28T04:46:09;11.57;;;5.17;;
11907;SDS011;6014;47.690;9.130;2022-12-28T04:48:39;9.63;;;4.87;;
11907;SDS011;6014;47.690;9.130;2022-12-28T04:51:09;11.37;;;4.87;;
11907;SDS011;6014;47.690;9.130;2022-12-28T04:53:43;9.77;;;4.10;;
11907;SDS011;6014;47.690;9.130;2022-12-28T04:56:11;19.47;;;4.50;;
11907;SDS011;6014;47.690;9.130;2022-12-28T04:58:40;16.37;;;4.93;;
11907;SDS011;6014;47.690;9.130;2022-12-28T05:01:09;12.80;;;4.67;;
11907;SDS011;6014;47.690;9.130;2022-12-28T05:03:41;9.83;;;4.90;;
11907;SDS011;6014;47.690;9.130;2022-12-28T05:06:22;20.30;;;4.70;;
11907;SDS011;6014;47.690;9.130;2022-12-28T05:08:52;15.47;;;5.20;;
11907;SDS011;6014;47.690;9.130;2022-12-28T05:11:23;12.10;;;4.93;;
11907;SDS011;6014;47.690;9.130;2022-12-28T05:13:54;13.20;;;4.67;;
11907;SDS011;6014;47.690;9.130;2022-12-28T05:16:27;13.97;;;4.90;;
11907;SDS011;6014;47.690;9.130;2022-12-28T05:18:56;10.50;;;5.00;;
11907;SDS011;6014;47.690;9.130;2022-12-28T05:21:27;15.10;;;4.90;;
11907;SDS011;6014;47.690;9.130;2022-12-28T05:23:55;11.97;;;5.00;;
11907;SDS011;6014;47.690;9.130;2022-12-28T05:26:24;12.23;;;4.33;;
11907;SDS011;6014;47.690;9.130;2022-12-28T05:28:54;8.00;;;4.60;;
11907;SDS011;6014;47.690;9.130;2022-12-28T05:31:23;10.47;;;4.47;;
11907;SDS011;6014;47.690;9.130;2022-12-28T05:33:52;7.37;;;4.40;;
11907;SDS011;6014;47.690;9.130;2022-12-28T05:36:23;12.27;;;5.73;;
11907;SDS011;6014;47.690;9.130;2022-12-28T05:38:54;10.57;;;4.90;;
11907;SDS011;6014;47.690;9.130;2022-12-28T05:41:23;9.53;;;4.73;;
11907;SDS011;6014;47.690;9.130;2022-12-28T05:43:53;16.70;;;5.10;;
11907;SDS011;6014;47.690;9.130;2022-12-28T05:46:23;12.10;;;4.53;;
11907;SDS011;6014;47.690;9.130;2022-12-28T05:48:53;15.27;;;4.47;;
11907;SDS011;6014;47.690;9.130;2022-12-28T05:51:23;14.27;;;5.23;;
11907;SDS011;6014;47.690;9.130;2022-12-28T05:53:54;12.33;;;4.60;;
11907;SDS011;6014;47.690;9.130;2022-12-28T05:56:23;8.23;;;4.73;;
11907;SDS011;6014;47.690;9.130;2022-12-28T05:58:53;10.10;;;4.30;;
11907;SDS011;6014;47.690;9.130;2022-12-28T06:01:23;15.93;;;5.97;;
11907;SDS011;6014;47.690;9.130;2022-12-28T06:03:54;11.93;;;5.13;;
11907;SDS011;6014;47.690;9.130;2022-12-28T06:06:24;12.20;;;6.70;;
11907;SDS011;6014;47.690;9.130;2022-12-28T06:08:54;14.17;;;7.13;;
11907;SDS011;6014;47.690;9.130;2022-12-28T06:11:23;17.13;;;8.00;;
11907;SDS011;6014;47.690;9.130;2022-12-28T06:13:52;17.60;;;8.57;;
11907;SDS011;6014;47.690;9.130;2022-12-28T06:16:21;17.13;;;6.47;;
11907;SDS011;6014;47.690;9.130;2022-12-28T06:18:51;11.30;;;5.87;;
11907;SDS011;6014;47.690;9.130;2022-12-28T06:21:20;17.47;;;6.20;;
11907;SDS011;6014;47.690;9.130;2022-12-28T06:23:53;12.40;;;6.30;;
11907;SDS011;6014;47.690;9.130;2022-12-28T06:26:24;10.33;;;5.43;;
11907;SDS011;6014;47.690;9.130;2022-12-28T06:28:53;11.07;;;5.67;;
11907;SDS011;6014;47.690;9.130;2022-12-28T06:31:28;10.90;;;4.07;;
11907;SDS011;6014;47.690;9.130;2022-12-28T06:33:58;10.30;;;5.27;;
11907;SDS011;6014;47.690;9.130;2022-12-28T06:36:28;12.77;;;5.00;;
11907;SDS011;6014;47.690;9.130;2022-12-28T06:39:02;9.00;;;4.80;;
11907;SDS011;6014;47.690;9.130;2022-12-28T06:41:31;7.40;;;4.60;;
11907;SDS011;6014;47.690;9.130;2022-12-28T06:44:00;7.00;;;4.27;;
11907;SDS011;6014;47.690;9.130;2022-12-28T06:46:31;13.37;;;5.37;;
11907;SDS011;6014;47.690;9.130;2022-12-28T06:49:01;7.90;;;4.93;;
11907;SDS011;6014;47.690;9.130;2022-12-28T06:51:31;6.47;;;4.33;;
11907;SDS011;6014;47.690;9.130;2022-12-28T06:54:06;9.27;;;4.43;;
11907;SDS011;6014;47.690;9.130;2022-12-28T06:56:37;6.90;;;4.57;;
11907;SDS011;6014;47.690;9.130;2022-12-28T06:59:13;7.57;;;4.27;;
11907;SDS011;6014;47.690;9.130;2022-12-28T07:01:41;14.80;;;4.80;;
11907;SDS011;6014;47.690;9.130;2022-12-28T07:04:11;11.43;;;5.10;;
11907;SDS011;6014;47.690;9.130;2022-12-28T07:09:21;7.70;;;4.70;;
11907;SDS011;6014;47.690;9.130;2022-12-28T07:11:49;7.20;;;4.10;;
11907;SDS011;6014;47.690;9.130;2022-12-28T07:14:18;6.30;;;4.07;;
11907;SDS011;6014;47.690;9.130;2022-12-28T07:16:46;8.57;;;4.50;;
11907;SDS011;6014;47.690;9.130;2022-12-28T07:19:15;7.27;;;4.23;;
11907;SDS011;6014;47.690;9.130;2022-12-28T07:21:43;10.80;;;4.40;;
11907;SDS011;6014;47.690;9.130;2022-12-28T07:24:11;6.13;;;3.67;;
11907;SDS011;6014;47.690;9.130;2022-12-28T07:26:41;10.13;;;4.00;;
11907;SDS011;6014;47.690;9.130;2022-12-28T07:29:10;12.23;;;5.70;;
11907;SDS011;6014;47.690;9.130;2022-12-28T07:31:38;11.03;;;5.43;;
11907;SDS011;6014;47.690;9.130;2022-12-28T07:34:11;9.83;;;4.27;;
11907;SDS011;6014;47.690;9.130;2022-12-28T07:36:40;10.87;;;4.17;;
11907;SDS011;6014;47.690;9.130;2022-12-28T07:39:09;9.37;;;4.10;;
11907;SDS011;6014;47.690;9.130;2022-12-28T07:41:37;10.23;;;4.27;;
11907;SDS011;6014;47.690;9.130;2022-12-28T07:44:07;7.07;;;4.47;;
11907;SDS011;6014;47.690;9.130;2022-12-28T07:46:35;9.33;;;4.60;;
11907;SDS011;6014;47.690;9.130;2022-12-28T07:49:04;11.47;;;4.73;;
11907;SDS011;6014;47.690;9.130;2022-12-28T07:51:32;8.70;;;3.90;;
11907;SDS011;6014;47.690;9.130;2022-12-28T07:54:02;8.80;;;3.90;;
11907;SDS011;6014;47.690;9.130;2022-12-28T07:56:30;6.87;;;3.90;;
11907;SDS011;6014;47.690;9.130;2022-12-28T07:58:59;14.07;;;3.70;;
11907;SDS011;6014;47.690;9.130;2022-12-28T08:01:31;13.47;;;3.63;;
11907;SDS011;6014;47.690;9.130;2022-12-28T08:04:02;7.93;;;4.10;;
11907;SDS011;6014;47.690;9.130;2022-12-28T08:06:32;9.27;;;4.07;;
11907;SDS011;6014;47.690;9.130;2022-12-28T08:09:01;12.53;;;5.50;;
11907;SDS011;6014;47.690;9.130;2022-12-28T08:11:31;11.67;;;5.20;;
11907;SDS011;6014;47.690;9.130;2022-12-28T08:14:00;22.13;;;6.50;;
11907;SDS011;6014;47.690;9.130;2022-12-28T08:16:29;17.67;;;6.43;;
11907;SDS011;6014;47.690;9.130;2022-12-28T08:19:00;10.83;;;5.07;;
11907;SDS011;6014;47.690;9.130;2022-12-28T08:21:29;7.50;;;4.53;;
11907;SDS011;6014;47.690;9.130;2022-12-28T08:23:59;9.77;;;4.77;;
11907;SDS011;6014;47.690;9.130;2022-12-28T08:26:28;9.30;;;4.87;;
11907;SDS011;6014;47.690;9.130;2022-12-28T08:28:58;7.77;;;4.70;;
11907;SDS011;6014;47.690;9.130;2022-12-28T08:31:28;14.63;;;4.70;;
11907;SDS011;6014;47.690;9.130;2022-12-28T08:34:00;10.60;;;5.03;;
11907;SDS011;6014;47.690;9.130;2022-12-28T08:36:30;12.50;;;4.80;;
11907;SDS011;6014;47.690;9.130;2022-12-28T08:38:59;7.30;;;4.60;;
11907;SDS011;6014;47.690;9.130;2022-12-28T08:41:28;7.00;;;4.37;;
11907;SDS011;6014;47.690;9.130;2022-12-28T08:43:56;9.17;;;5.33;;
11907;SDS011;6014;47.690;9.130;2022-12-28T08:46:28;8.23;;;4.67;;
11907;SDS011;6014;47.690;9.130;2022-12-28T08:49:00;6.73;;;4.43;;
11907;SDS011;6014;47.690;9.130;2022-12-28T08:51:30;8.47;;;5.00;;
11907;SDS011;6014;47.690;9.130;2022-12-28T08:53:59;6.80;;;4.37;;
11907;SDS011;6014;47.690;9.130;2022-12-28T08:56:29;7.47;;;4.90;;
11907;SDS011;6014;47.690;9.130;2022-12-28T08:58:59;6.93;;;4.33;;
11907;SDS011;6014;47.690;9.130;2022-12-28T09:01:29;8.03;;;4.77;;
11907;SDS011;6014;47.690;9.130;2022-12-28T09:04:12;7.67;;;4.80;;
11907;SDS011;6014;47.690;9.130;2022-12-28T09:06:42;7.47;;;4.87;;
11907;SDS011;6014;47.690;9.130;2022-12-28T09:09:12;8.30;;;5.30;;
11907;SDS011;6014;47.690;9.130;2022-12-28T09:11:41;8.67;;;4.87;;
11907;SDS011;6014;47.690;9.130;2022-12-28T09:14:11;8.87;;;5.80;;
11907;SDS011;6014;47.690;9.130;2022-12-28T09:16:48;6.87;;;4.43;;
11907;SDS011;6014;47.690;9.130;2022-12-28T09:19:18;8.23;;;4.80;;
11907;SDS011;6014;47.690;9.130;2022-12-28T09:21:46;7.87;;;4.93;;
11907;SDS011;6014;47.690;9.130;2022-12-28T09:24:18;6.43;;;4.00;;
11907;SDS011;6014;47.690;9.130;2022-12-28T09:26:46;7.27;;;4.53;;
11907;SDS011;6014;47.690;9.130;2022-12-28T09:29:17;6.63;;;4.20;;
11907;SDS011;6014;47.690;9.130;2022-12-28T09:31:46;7.33;;;4.77;;
11907;SDS011;6014;47.690;9.130;2022-12-28T09:34:14;7.23;;;3.93;;
11907;SDS011;6014;47.690;9.130;2022-12-28T09:37:04;7.50;;;4.90;;
11907;SDS011;6014;47.690;9.130;2022-12-28T09:39:34;8.00;;;4.90;;
11907;SDS011;6014;47.690;9.130;2022-12-28T09:42:03;8.83;;;5.00;;
11907;SDS011;6014;47.690;9.130;2022-12-28T09:44:49;8.13;;;4.67;;
11907;SDS011;6014;47.690;9.130;2022-12-28T09:47:25;8.67;;;4.17;;
11907;SDS011;6014;47.690;9.130;2022-12-28T09:50:00;8.07;;;5.30;;
11907;SDS011;6014;47.690;9.130;2022-12-28T09:52:37;11.90;;;6.83;;
11907;SDS011;6014;47.690;9.130;2022-12-28T09:55:15;7.77;;;4.60;;
11907;SDS011;6014;47.690;9.130;2022-12-28T09:57:46;11.37;;;5.90;;
11907;SDS011;6014;47.690;9.130;2022-12-28T10:00:18;8.33;;;5.30;;
11907;SDS011;6014;47.690;9.130;2022-12-28T10:02:49;8.97;;;5.50;;
11907;SDS011;6014;47.690;9.130;2022-12-28T10:05:20;9.70;;;5.90;;
11907;SDS011;6014;47.690;9.130;2022-12-28T10:07:50;11.17;;;6.43;;
11907;SDS011;6014;47.690;9.130;2022-12-28T10:10:21;8.40;;;4.97;;
11907;SDS011;6014;47.690;9.130;2022-12-28T10:12:51;8.57;;;5.13;;
11907;SDS011;6014;47.690;9.130;2022-12-28T10:15:20;9.77;;;5.97;;
11907;SDS011;6014;47.690;9.130;2022-12-28T10:17:52;8.50;;;5.00;;
11907;SDS011;6014;47.690;9.130;2022-12-28T10:20:21;8.33;;;5.10;;
11907;SDS011;6014;47.690;9.130;2022-12-28T10:22:52;8.83;;;5.60;;
11907;SDS011;6014;47.690;9.130;2022-12-28T10:25:23;9.60;;;6.03;;
11907;SDS011;6014;47.690;9.130;2022-12-28T10:27:52;9.57;;;5.95;;
11907;SDS011;6014;47.690;9.130;2022-12-28T10:30:22;9.98;;;6.70;;
11907;SDS011;6014;47.690;9.130;2022-12-28T10:32:53;16.40;;;12.07;;
11907;SDS011;6014;47.690;9.130;2022-12-28T10:35:29;11.77;;;9.05;;
11907;SDS011;6014;47.690;9.130;2022-12-28T10:38:02;8.55;;;6.15;;
11907;SDS011;6014;47.690;9.130;2022-12-28T10:40:35;12.05;;;8.25;;
11907;SDS011;6014;47.690;9.130;2022-12-28T10:43:05;11.80;;;8.05;;
11907;SDS011;6014;47.690;9.130;2022-12-28T10:45:45;9.50;;;5.25;;
11907;SDS011;6014;47.690;9.130;2022-12-28T10:48:17;9.20;;;5.13;;
11907;SDS011;6014;47.690;9.130;2022-12-28T10:50:50;8.30;;;5.10;;
11907;SDS011;6014;47.690;9.130;2022-12-28T10:53:24;9.40;;;5.95;;
11907;SDS011;6014;47.690;9.130;2022-12-28T10:56:02;7.05;;;5.28;;
11907;SDS011;6014;47.690;9.130;2022-12-28T10:58:33;7.45;;;5.00;;
11907;SDS011;6014;47.690;9.130;2022-12-28T11:01:02;8.80;;;5.32;;
11907;SDS011;6014;47.690;9.130;2022-12-28T11:03:34;7.63;;;5.03;;
11907;SDS011;6014;47.690;9.130;2022-12-28T11:06:11;8.47;;;5.33;;
11907;SDS011;6014;47.690;9.130;2022-12-28T11:09:03;8.48;;;5.90;;
11907;SDS011;6014;47.690;9.130;2022-12-28T11:11:42;8.47;;;5.40;;
11907;SDS011;6014;47.690;9.130;2022-12-28T11:14:13;8.53;;;5.33;;
11907;SDS011;6014;47.690;9.130;2022-12-28T11:16:48;8.60;;;5.35;;
11907;SDS011;6014;47.690;9.130;2022-12-28T11:19:16;7.85;;;4.68;;
11907;SDS011;6014;47.690;9.130;2022-12-28T11:21:45;8.73;;;5.57;;
11907;SDS011;6014;47.690;9.130;2022-12-28T11:24:16;11.05;;;5.18;;
11907;SDS011;6014;47.690;9.130;2022-12-28T11:26:45;9.25;;;6.20;;
11907;SDS011;6014;47.690;9.130;2022-12-28T11:29:16;8.43;;;5.55;;
11907;SDS011;6014;47.690;9.130;2022-12-28T11:31:46;8.45;;;5.35;;
11907;SDS011;6014;47.690;9.130;2022-12-28T11:34:22;8.63;;;5.32;;
11907;SDS011;6014;47.690;9.130;2022-12-28T11:36:54;18.77;;;5.47;;
11907;SDS011;6014;47.690;9.130;2022-12-28T11:39:40;9.97;;;4.83;;
11907;SDS011;6014;47.690;9.130;2022-12-28T11:42:10;9.87;;;4.90;;
11907;SDS011;6014;47.690;9.130;2022-12-28T11:44:59;8.70;;;4.95;;
11907;SDS011;6014;47.690;9.130;2022-12-28T11:47:30;7.40;;;3.87;;
11907;SDS011;6014;47.690;9.130;2022-12-28T11:56:20;11.13;;;4.50;;
11907;SDS011;6014;47.690;9.130;2022-12-28T12:01:49;14.57;;;5.20;;
11907;SDS011;6014;47.690;9.130;2022-12-28T12:04:31;10.00;;;5.70;;
11907;SDS011;6014;47.690;9.130;2022-12-28T12:12:57;8.65;;;5.00;;
11907;SDS011;6014;47.690;9.130;2022-12-28T12:15:38;8.53;;;5.37;;
11907;SDS011;6014;47.690;9.130;2022-12-28T12:18:13;8.98;;;5.50;;
11907;SDS011;6014;47.690;9.130;2022-12-28T12:20:49;7.22;;;4.78;;
11907;SDS011;6014;47.690;9.130;2022-12-28T12:23:23;10.85;;;5.63;;
11907;SDS011;6014;47.690;9.130;2022-12-28T12:26:08;9.20;;;5.43;;
11907;SDS011;6014;47.690;9.130;2022-12-28T12:28:47;8.27;;;4.60;;
11907;SDS011;6014;47.690;9.130;2022-12-28T12:31:20;7.88;;;4.75;;
11907;SDS011;6014;47.690;9.130;2022-12-28T12:33:54;10.35;;;4.93;;
11907;SDS011;6014;47.690;9.130;2022-12-28T12:36:32;7.97;;;4.88;;
11907;SDS011;6014;47.690;9.130;2022-12-28T12:42:49;9.15;;;6.80;;
11907;SDS011;6014;47.690;9.130;2022-12-28T12:45:36;7.75;;;5.13;;
11907;SDS011;6014;47.690;9.130;2022-12-28T12:48:23;7.82;;;5.22;;
11907;SDS011;6014;47.690;9.130;2022-12-28T12:51:04;7.30;;;4.63;;
11907;SDS011;6014;47.690;9.130;2022-12-28T12:53:53;7.65;;;4.93;;
11907;SDS011;6014;47.690;9.130;2022-12-28T12:56:42;7.22;;;4.63;;
11907;SDS011;6014;47.690;9.130;2022-12-28T12:59:23;8.38;;;4.78;;
11907;SDS011;6014;47.690;9.130;2022-12-28T13:02:07;8.10;;;4.97;;
11907;SDS011;6014;47.690;9.130;2022-12-28T13:04:50;6.78;;;4.57;;
11907;SDS011;6014;47.690;9.130;2022-12-28T13:07:19;9.57;;;4.47;;
11907;SDS011;6014;47.690;9.130;2022-12-28T13:09:49;7.18;;;4.35;;
11907;SDS011;6014;47.690;9.130;2022-12-28T13:12:20;7.40;;;4.30;;
11907;SDS011;6014;47.690;9.130;2022-12-28T13:14:54;6.22;;;3.50;;
11907;SDS011;6014;47.690;9.130;2022-12-28T13:17:27;8.10;;;4.18;;
11907;SDS011;6014;47.690;9.130;2022-12-28T13:20:09;5.25;;;2.88;;
11907;SDS011;6014;47.690;9.130;2022-12-28T13:22:45;5.75;;;2.47;;
11907;SDS011;6014;47.690;9.130;2022-12-28T13:25:24;4.60;;;1.92;;
11907;SDS011;6014;47.690;9.130;2022-12-28T13:27:54;4.70;;;1.83;;
11907;SDS011;6014;47.690;9.130;2022-12-28T13:30:24;4.68;;;2.28;;
11907;SDS011;6014;47.690;9.130;2022-12-28T13:32:59;4.50;;;2.15;;
11907;SDS011;6014;47.690;9.130;2022-12-28T13:35:30;5.63;;;2.53;;
11907;SDS011;6014;47.690;9.130;2022-12-28T13:38:03;4.90;;;2.25;;
11907;SDS011;6014;47.690;9.130;2022-12-28T13:40:40;4.97;;;2.42;;
11907;SDS011;6014;47.690;9.130;2022-12-28T13:43:32;3.63;;;2.00;;
11907;SDS011;6014;47.690;9.130;2022-12-28T13:46:14;3.60;;;2.40;;
11907;SDS011;6014;47.690;9.130;2022-12-28T13:48:49;3.38;;;1.90;;
11907;SDS011;6014;47.690;9.130;2022-12-28T13:51:23;5.50;;;1.98;;
11907;SDS011;6014;47.690;9.130;2022-12-28T13:53:54;3.58;;;1.85;;
11907;SDS011;6014;47.690;9.130;2022-12-28T13:56:26;3.03;;;1.80;;
11907;SDS011;6014;47.690;9.130;2022-12-28T13:58:57;6.07;;;1.90;;
11907;SDS011;6014;47.690;9.130;2022-12-28T14:01:29;2.92;;;1.40;;
11907;SDS011;6014;47.690;9.130;2022-12-28T14:04:06;3.20;;;1.50;;
11907;SDS011;6014;47.690;9.130;2022-12-28T14:07:00;2.72;;;1.40;;
11907;SDS011;6014;47.690;9.130;2022-12-28T14:09:29;2.03;;;1.20;;
11907;SDS011;6014;47.690;9.130;2022-12-28T14:11:58;2.53;;;1.50;;
11907;SDS011;6014;47.690;9.130;2022-12-28T14:14:27;2.80;;;1.55;;
11907;SDS011;6014;47.690;9.130;2022-12-28T14:16:56;2.58;;;1.35;;
11907;SDS011;6014;47.690;9.130;2022-12-28T14:19:33;2.78;;;1.30;;
11907;SDS011;6014;47.690;9.130;2022-12-28T14:24:57;1.85;;;0.90;;
11907;SDS011;6014;47.690;9.130;2022-12-28T14:27:27;2.05;;;1.25;;
11907;SDS011;6014;47.690;9.130;2022-12-28T14:29:56;3.63;;;1.77;;
11907;SDS011;6014;47.690;9.130;2022-12-28T14:32:24;2.45;;;1.40;;
11907;SDS011;6014;47.690;9.130;2022-12-28T14:34:58;3.15;;;1.40;;
11907;SDS011;6014;47.690;9.130;2022-12-28T14:37:28;1.48;;;1.20;;
11907;SDS011;6014;47.690;9.130;2022-12-28T14:40:02;2.33;;;1.27;;
11907;SDS011;6014;47.690;9.130;2022-12-28T14:42:32;2.10;;;1.20;;
11907;SDS011;6014;47.690;9.130;2022-12-28T14:48:24;2.53;;;1.35;;
11907;SDS011;6014;47.690;9.130;2022-12-28T14:51:00;1.10;;;0.90;;
11907;SDS011;6014;47.690;9.130;2022-12-28T14:53:29;2.03;;;1.15;;
11907;SDS011;6014;47.690;9.130;2022-12-28T14:55:59;2.10;;;1.13;;
11907;SDS011;6014;47.690;9.130;2022-12-28T14:58:32;2.30;;;1.20;;
11907;SDS011;6014;47.690;9.130;2022-12-28T15:01:16;1.02;;;0.90;;
11907;SDS011;6014;47.690;9.130;2022-12-28T15:03:47;2.70;;;1.08;;
11907;SDS011;6014;47.690;9.130;2022-12-28T15:06:24;2.25;;;1.20;;
11907;SDS011;6014;47.690;9.130;2022-12-28T15:08:54;1.35;;;0.98;;
11907;SDS011;6014;47.690;9.130;2022-12-28T15:11:27;2.83;;;1.40;;
11907;SDS011;6014;47.690;9.130;2022-12-28T15:13:56;2.03;;;0.98;;
11907;SDS011;6014;47.690;9.130;2022-12-28T15:16:24;1.80;;;1.00;;
11907;SDS011;6014;47.690;9.130;2022-12-28T15:18:53;2.58;;;1.25;;
11907;SDS011;6014;47.690;9.130;2022-12-28T15:21:23;1.85;;;1.05;;
11907;SDS011;6014;47.690;9.130;2022-12-28T15:23:54;5.05;;;1.35;;
11907;SDS011;6014;47.690;9.130;2022-12-28T15:26:26;2.17;;;1.17;;
11907;SDS011;6014;47.690;9.130;2022-12-28T15:28:55;2.65;;;1.35;;
11907;SDS011;6014;47.690;9.130;2022-12-28T15:31:23;3.30;;;1.15;;
11907;SDS011;6014;47.690;9.130;2022-12-28T15:33:51;2.25;;;1.13;;
11907;SDS011;6014;47.690;9.130;2022-12-28T15:36:19;2.33;;;1.10;;
11907;SDS011;6014;47.690;9.130;2022-12-28T15:38:53;3.15;;;1.63;;
11907;SDS011;6014;47.690;9.130;2022-12-28T15:41:23;3.35;;;1.73;;
11907;SDS011;6014;47.690;9.130;2022-12-28T15:44:09;2.45;;;1.30;;
11907;SDS011;6014;47.690;9.130;2022-12-28T15:46:38;3.80;;;1.60;;
11907;SDS011;6014;47.690;9.130;2022-12-28T15:49:08;2.72;;;1.38;;
11907;SDS011;6014;47.690;9.130;2022-12-28T15:51:38;3.05;;;1.30;;
11907;SDS011;6014;47.690;9.130;2022-12-28T15:54:08;3.47;;;1.45;;
11907;SDS011;6014;47.690;9.130;2022-12-28T15:56:37;2.03;;;1.20;;
11907;SDS011;6014;47.690;9.130;2022-12-28T15:59:09;2.58;;;1.33;;
11907;SDS011;6014;47.690;9.130;2022-12-28T16:01:39;3.75;;;1.75;;
11907;SDS011;6014;47.690;9.130;2022-12-28T16:04:10;4.43;;;1.85;;
11907;SDS011;6014;47.690;9.130;2022-12-28T16:06:39;3.10;;;1.13;;
11907;SDS011;6014;47.690;9.130;2022-12-28T16:09:12;2.15;;;1.33;;